createdAt,value
2023-04-30T00:03:30.839Z,8.02
2023-04-30T00:08:36.149Z,8.06
2023-04-30T00:13:39.757Z,8.21
2023-04-30T00:18:43.139Z,8.18
2023-04-30T00:23:48.121Z,8.25
2023-04-30T00:28:51.901Z,8.32
2023-04-30T00:33:55.707Z,8.40
2023-04-30T00:39:00.626Z,8.39
2023-04-30T00:44:04.524Z,8.27
2023-04-30T00:49:08.158Z,8.10
2023-04-30T00:54:13.385Z,8.00
2023-04-30T00:59:17.241Z,7.95
2023-04-30T01:04:21.352Z,7.79
2023-04-30T01:09:26.828Z,7.61
2023-04-30T01:14:33.645Z,7.59
2023-04-30T01:19:42.375Z,7.48
2023-04-30T01:25:07.827Z,7.35
2023-04-30T01:30:14.523Z,7.40
2023-04-30T01:35:17.998Z,7.33
2023-04-30T01:40:29.704Z,7.26
2023-04-30T01:46:03.330Z,7.24
2023-04-30T01:51:10.557Z,7.08
2023-04-30T01:56:21.427Z,7.22
2023-04-30T02:01:30.978Z,7.19
2023-04-30T02:06:34.705Z,7.20
2023-04-30T02:11:38.426Z,7.18
2023-04-30T02:16:43.582Z,7.06
2023-04-30T02:21:47.068Z,7.09
2023-04-30T02:26:50.692Z,7.18
2023-04-30T02:31:56.010Z,7.19
2023-04-30T02:36:59.758Z,7.14
2023-04-30T02:42:03.180Z,7.12
2023-04-30T02:47:08.978Z,7.06
2023-04-30T02:52:12.827Z,7.03
2023-04-30T02:57:16.668Z,6.95
2023-04-30T03:02:23.749Z,6.93
2023-04-30T03:07:27.934Z,6.93
2023-04-30T03:12:31.583Z,6.96
2023-04-30T03:17:37.023Z,6.93
2023-04-30T03:22:40.592Z,6.90
2023-04-30T03:27:45.626Z,7.05
2023-04-30T03:32:50.698Z,7.09
2023-04-30T03:37:54.227Z,7.16
2023-04-30T03:42:57.623Z,7.29
2023-04-30T03:48:02.554Z,7.33
2023-04-30T03:53:06.446Z,7.27
2023-04-30T03:58:10.067Z,7.29
2023-04-30T04:03:15.569Z,7.29
2023-04-30T04:08:19.737Z,7.16
2023-04-30T04:13:23.535Z,7.19
2023-04-30T04:18:28.417Z,7.21
2023-04-30T04:23:31.874Z,7.13
2023-04-30T04:28:35.617Z,7.22
2023-04-30T04:33:41.032Z,7.27
2023-04-30T04:38:44.765Z,7.44
2023-04-30T04:43:48.315Z,7.78
2023-04-30T04:48:53.593Z,8.04
2023-04-30T04:53:56.999Z,8.41
2023-04-30T04:59:00.960Z,8.58
2023-04-30T05:04:06.394Z,8.85
2023-04-30T05:09:10.065Z,9.17
2023-04-30T05:14:13.629Z,9.26
2023-04-30T05:19:18.488Z,9.48
2023-04-30T05:24:21.848Z,9.55
2023-04-30T05:29:25.270Z,9.89
2023-04-30T05:34:30.075Z,10.02
2023-04-30T05:39:33.544Z,10.22
2023-04-30T05:44:36.971Z,10.52
2023-04-30T05:49:41.870Z,10.75
2023-04-30T05:54:46.370Z,11.08
2023-04-30T05:59:51.285Z,11.34
2023-04-30T06:04:56.351Z,11.48
2023-04-30T06:10:00.022Z,11.93
2023-04-30T06:15:04.381Z,12.31
2023-04-30T06:20:11.726Z,12.74
2023-04-30T06:25:15.258Z,13.02
2023-04-30T06:30:19.064Z,13.22
2023-04-30T06:35:24.575Z,13.82
2023-04-30T06:40:28.076Z,14.04
2023-04-30T06:45:31.816Z,14.42
2023-04-30T06:50:44.790Z,14.70
2023-04-30T06:55:48.304Z,14.91
2023-04-30T07:00:52.455Z,15.14
2023-04-30T07:05:57.735Z,15.30
2023-04-30T07:11:01.274Z,15.49
2023-04-30T07:16:05.446Z,15.86
2023-04-30T07:21:10.456Z,16.43
2023-04-30T07:26:13.899Z,16.61
2023-04-30T07:31:17.592Z,16.84
2023-04-30T07:36:22.668Z,16.99
2023-04-30T07:41:27.055Z,17.06
2023-04-30T07:46:31.119Z,17.02
2023-04-30T07:51:36.124Z,17.56
2023-04-30T07:56:39.730Z,17.78
2023-04-30T08:01:43.449Z,18.08
2023-04-30T08:06:48.614Z,18.25
2023-04-30T08:11:53.220Z,18.48
2023-04-30T08:16:58.684Z,18.54
2023-04-30T08:22:03.716Z,18.33
2023-04-30T08:27:07.157Z,18.64
2023-04-30T08:32:27.850Z,18.90
2023-04-30T08:37:33.948Z,19.29
2023-04-30T08:42:39.242Z,19.21
2023-04-30T08:47:44.047Z,19.30
2023-04-30T08:52:52.964Z,19.46
2023-04-30T08:58:16.082Z,19.94
2023-04-30T09:03:28.724Z,20.03
2023-04-30T09:08:47.341Z,20.57
2023-04-30T09:13:55.501Z,20.69
2023-04-30T09:19:52.628Z,19.90
2023-04-30T09:31:35.335Z,19.96
2023-04-30T09:36:56.048Z,20.75
2023-04-30T09:42:10.870Z,20.57
2023-04-30T09:47:19.361Z,20.78
2023-04-30T09:52:24.927Z,20.63
2023-04-30T09:57:32.605Z,21.10
2023-04-30T10:02:41.330Z,21.68
2023-04-30T10:07:51.692Z,21.15
2023-04-30T10:13:03.117Z,21.77
2023-04-30T10:18:46.814Z,21.02
2023-04-30T10:23:57.366Z,21.70
2023-04-30T10:29:11.984Z,21.92
2023-04-30T10:40:13.405Z,21.22
2023-04-30T10:45:20.539Z,21.58
2023-04-30T10:50:31.232Z,21.86
2023-04-30T11:01:29.688Z,22.21
2023-04-30T11:06:58.537Z,21.45
2023-04-30T11:12:11.298Z,21.93
2023-04-30T11:17:27.208Z,22.05
2023-04-30T11:22:36.657Z,22.07
2023-04-30T11:27:45.593Z,22.57
2023-04-30T11:32:51.931Z,22.87
2023-04-30T11:38:11.056Z,22.17
2023-04-30T11:43:26.229Z,22.29
2023-04-30T11:48:33.885Z,22.50
2023-04-30T11:53:38.791Z,22.80
2023-04-30T11:58:44.976Z,21.56
2023-04-30T12:03:50.627Z,22.33
2023-04-30T12:08:55.790Z,22.24
2023-04-30T12:14:07.809Z,21.68
2023-04-30T12:19:12.210Z,22.15
2023-04-30T12:24:17.459Z,21.96
2023-04-30T12:29:25.172Z,21.78
2023-04-30T12:34:31.528Z,21.67
2023-04-30T12:39:38.138Z,22.32
2023-04-30T12:44:47.158Z,22.68
2023-04-30T12:49:51.396Z,22.51
2023-04-30T12:54:56.302Z,22.12
2023-04-30T13:00:04.158Z,22.96
2023-04-30T13:05:11.992Z,22.07
2023-04-30T13:10:16.843Z,22.63
2023-04-30T13:15:22.911Z,22.22
2023-04-30T13:20:27.644Z,22.37
2023-04-30T13:25:32.046Z,21.89
2023-04-30T13:30:37.953Z,21.94
2023-04-30T13:35:41.890Z,22.17
2023-04-30T13:40:45.826Z,21.92
2023-04-30T13:45:51.434Z,22.15
2023-04-30T13:50:55.962Z,22.03
2023-04-30T13:56:00.825Z,21.31
2023-04-30T14:01:06.646Z,21.61
2023-04-30T14:06:10.871Z,21.53
2023-04-30T14:11:14.980Z,21.35
2023-04-30T14:16:21.062Z,21.16
2023-04-30T14:21:25.158Z,21.42
2023-04-30T14:26:29.212Z,21.32
2023-04-30T14:31:35.072Z,21.24
2023-04-30T14:36:39.250Z,20.66
2023-04-30T14:41:43.129Z,20.96
2023-04-30T14:46:49.156Z,21.27
2023-04-30T14:51:53.295Z,20.58
2023-04-30T14:57:00.686Z,20.34
2023-04-30T15:02:07.604Z,20.22
2023-04-30T15:07:11.796Z,20.15
2023-04-30T15:12:16.471Z,19.92
2023-04-30T15:17:23.003Z,19.85
2023-04-30T15:22:27.008Z,19.43
2023-04-30T15:27:33.812Z,19.27
2023-04-30T15:32:43.567Z,19.46
2023-04-30T15:38:03.113Z,19.44
2023-04-30T15:43:10.066Z,19.21
2023-04-30T15:48:16.841Z,19.16
2023-04-30T15:53:37.278Z,18.89
2023-04-30T15:58:44.104Z,18.63
2023-04-30T16:04:01.259Z,18.63
2023-04-30T16:09:21.165Z,18.42
2023-04-30T16:14:31.522Z,18.18
2023-04-30T16:19:39.516Z,18.05
2023-04-30T16:24:43.610Z,17.93
2023-04-30T16:29:47.861Z,17.87
2023-04-30T16:34:55.572Z,17.75
2023-04-30T16:40:00.405Z,17.46
2023-04-30T16:45:04.374Z,17.42
2023-04-30T16:50:13.030Z,17.36
2023-04-30T16:55:17.244Z,17.19
2023-04-30T17:00:21.997Z,17.13
2023-04-30T17:05:27.783Z,16.90
2023-04-30T17:10:31.772Z,16.70
2023-04-30T17:15:36.512Z,16.49
2023-04-30T17:20:42.716Z,16.23
2023-04-30T17:25:46.782Z,16.14
2023-04-30T17:30:50.910Z,16.05
2023-04-30T17:35:56.912Z,15.98
2023-04-30T17:41:00.683Z,15.90
2023-04-30T17:46:04.728Z,15.81
2023-04-30T17:51:11.198Z,15.65
2023-04-30T17:56:15.243Z,15.52
2023-04-30T18:01:42.898Z,15.42
2023-04-30T18:07:29.831Z,15.33
2023-04-30T18:12:42.683Z,15.30
2023-04-30T18:18:11.160Z,15.22
2023-04-30T18:23:25.603Z,14.93
2023-04-30T18:28:42.549Z,14.37
2023-04-30T18:34:23.986Z,14.24
2023-04-30T18:40:42.613Z,14.14
2023-04-30T18:46:15.105Z,13.90
2023-04-30T18:51:22.659Z,13.85
2023-04-30T18:56:28.884Z,13.73
2023-04-30T19:01:38.200Z,13.47
2023-04-30T19:06:56.095Z,13.50
2023-04-30T19:12:06.212Z,13.53
2023-04-30T19:17:15.258Z,13.24
2023-04-30T19:22:19.967Z,13.25
2023-04-30T19:27:27.974Z,13.14
2023-04-30T19:32:32.312Z,12.97
2023-04-30T19:37:36.611Z,13.17
2023-04-30T19:42:42.149Z,13.12
2023-04-30T19:47:47.264Z,13.06
2023-04-30T19:52:51.150Z,13.17
2023-04-30T19:57:56.581Z,13.08
2023-04-30T20:03:04.433Z,13.06
2023-04-30T20:08:10.225Z,13.01
2023-04-30T20:13:16.041Z,12.77
2023-04-30T20:18:19.985Z,12.95
2023-04-30T20:23:23.932Z,12.79
2023-04-30T20:28:29.592Z,12.48
2023-04-30T20:33:34.426Z,12.46
2023-04-30T20:38:38.396Z,12.09
2023-04-30T20:43:43.926Z,12.05
2023-04-30T20:48:47.897Z,11.91
2023-04-30T20:53:51.854Z,12.03
2023-04-30T20:58:57.616Z,11.88
2023-04-30T21:04:02.465Z,11.90
2023-04-30T21:09:06.496Z,11.99
2023-04-30T21:14:14.958Z,11.70
2023-04-30T21:19:18.878Z,11.73
2023-04-30T21:24:22.793Z,11.68
2023-04-30T21:29:28.059Z,11.73
2023-04-30T21:34:32.943Z,11.65
2023-04-30T21:39:36.989Z,11.52
2023-04-30T21:44:43.002Z,11.80
2023-04-30T21:49:46.817Z,12.18
2023-04-30T21:54:51.629Z,12.15
2023-04-30T21:59:58.103Z,12.10
2023-04-30T22:05:02.526Z,12.02
2023-04-30T22:10:07.924Z,11.99
2023-04-30T22:15:14.320Z,11.87
2023-04-30T22:20:18.377Z,11.73
2023-04-30T22:25:23.129Z,11.62
2023-04-30T22:30:28.653Z,11.65
2023-04-30T22:35:32.920Z,11.52
2023-04-30T22:40:40.198Z,11.48
2023-04-30T22:45:45.832Z,11.56
2023-04-30T22:50:52.189Z,11.68
2023-04-30T22:55:57.248Z,11.55
2023-04-30T23:01:03.611Z,11.33
2023-04-30T23:06:07.681Z,11.45
2023-04-30T23:11:11.672Z,11.54
2023-04-30T23:16:17.177Z,11.73
2023-04-30T23:21:21.940Z,11.79
2023-04-30T23:26:26.298Z,11.84
2023-04-30T23:31:32.099Z,11.76
2023-04-30T23:36:35.749Z,11.70
2023-04-30T23:41:40.092Z,11.85
2023-04-30T23:46:45.968Z,11.77
2023-04-30T23:51:49.878Z,11.77
2023-04-30T23:56:53.752Z,11.64
